Time;durP1;ratioP1;P1;durP2;ratioP2;P2;SDS_P1;SDS_P2;PMS_P1;PMS_P2;Temp;Humidity;BMP_temperature;BMP_pressure;BME280_temperature;BME280_humidity;BME280_pressure;Samples;Min_cycle;Max_cycle;Signal;HPM_P1;HPM_P2
2021/10/23 00:02:16;;;;;;;4.73;1.50;;;;;;;;;;5002074;28;20217;-73
2021/10/23 00:05:20;;;;;;;7.90;1.70;;;;;;;;;;5014079;28;20189;-73
2021/10/23 00:08:24;;;;;;;4.77;1.40;;;;;;;;;;5014202;28;20186;-73
2021/10/23 00:11:28;;;;;;;4.33;1.77;;;;;;;;;;5013659;28;20224;-73
2021/10/23 00:14:32;;;;;;;2.73;1.53;;;;;;;;;;4991269;28;20174;-73
2021/10/23 00:17:36;;;;;;;3.70;1.77;;;;;;;;;;5013391;28;20193;-73
2021/10/23 00:20:40;;;;;;;4.17;1.87;;;;;;;;;;5013636;28;20229;-73
2021/10/23 00:23:44;;;;;;;4.23;1.60;;;;;;;;;;5014087;28;20186;-73
2021/10/23 00:26:48;;;;;;;6.47;1.80;;;;;;;;;;5002231;28;20541;-73
2021/10/23 00:29:52;;;;;;;5.43;1.43;;;;;;;;;;4990962;28;20190;-73
2021/10/23 00:33:01;;;;;;;4.73;1.43;;;;;;;;;;5012933;28;20209;-73
2021/10/23 00:36:05;;;;;;;5.37;1.80;;;;;;;;;;5013586;28;20186;-73
2021/10/23 00:39:09;;;;;;;5.80;1.77;;;;;;;;;;5013673;28;20182;-73
2021/10/23 00:42:14;;;;;;;5.27;1.73;;;;;;;;;;5013165;28;20221;-73
2021/10/23 00:45:18;;;;;;;3.47;1.33;;;;;;;;;;5013767;28;20189;-73
2021/10/23 00:48:22;;;;;;;2.80;1.43;;;;;;;;;;5013966;28;20189;-73
2021/10/23 00:51:26;;;;;;;4.83;1.83;;;;;;;;;;5013322;28;20216;-73
2021/10/23 00:54:31;;;;;;;4.53;1.80;;;;;;;;;;5013510;28;20514;-73
2021/10/23 00:57:38;;;;;;;6.33;1.73;;;;;;;;;;5013886;28;20186;-73
2021/10/23 01:00:42;;;;;;;4.23;1.60;;;;;;;;;;5013520;28;20220;-73
2021/10/23 01:03:47;;;;;;;3.77;1.67;;;;;;;;;;5013263;28;20178;-73
2021/10/23 01:06:52;;;;;;;6.93;1.80;;;;;;;;;;5013844;28;20193;-73
2021/10/23 01:09:56;;;;;;;3.80;2.00;;;;;;;;;;4990054;28;20189;-72
2021/10/23 01:13:00;;;;;;;3.80;1.90;;;;;;;;;;5001301;28;20201;-73
2021/10/23 01:16:04;;;;;;;4.37;1.70;;;;;;;;;;5013427;28;20189;-73
2021/10/23 01:19:10;;;;;;;3.97;1.60;;;;;;;;;;5013049;28;20178;-73
2021/10/23 01:22:13;;;;;;;5.73;1.73;;;;;;;;;;5012258;28;20225;-72
2021/10/23 01:25:20;;;;;;;6.50;1.83;;;;;;;;;;5013352;28;20205;-73
2021/10/23 01:28:24;;;;;;;8.33;2.23;;;;;;;;;;5001591;28;20182;-73
2021/10/23 01:31:28;;;;;;;3.60;1.60;;;;;;;;;;5001501;28;20217;-73
2021/10/23 01:34:33;;;;;;;7.13;2.07;;;;;;;;;;5013227;28;20544;-73
2021/10/23 01:37:43;;;;;;;3.57;1.53;;;;;;;;;;5012450;28;20186;-73
2021/10/23 01:40:46;;;;;;;3.73;1.60;;;;;;;;;;5013145;28;20704;-72
2021/10/23 01:43:50;;;;;;;5.13;1.70;;;;;;;;;;5012948;28;20182;-73
2021/10/23 01:46:54;;;;;;;3.63;1.43;;;;;;;;;;5013018;28;20194;-73
2021/10/23 01:49:59;;;;;;;2.50;1.50;;;;;;;;;;5013168;28;20186;-73
2021/10/23 01:53:03;;;;;;;5.20;1.50;;;;;;;;;;5013024;28;20209;-73
2021/10/23 01:56:07;;;;;;;4.20;1.73;;;;;;;;;;5012803;28;20190;-73
2021/10/23 01:59:12;;;;;;;4.50;1.50;;;;;;;;;;4978744;28;20178;-73
2021/10/23 02:02:15;;;;;;;3.50;1.60;;;;;;;;;;5012676;28;20225;-73
2021/10/23 02:05:20;;;;;;;3.57;1.60;;;;;;;;;;5003233;28;20198;-73
2021/10/23 02:08:24;;;;;;;5.33;1.67;;;;;;;;;;5016475;28;20186;-73
2021/10/23 02:11:28;;;;;;;9.00;2.00;;;;;;;;;;4993736;28;20221;-73
2021/10/23 02:14:32;;;;;;;5.33;1.67;;;;;;;;;;5004469;28;20209;-73
2021/10/23 02:17:36;;;;;;;4.57;1.70;;;;;;;;;;5004054;28;20525;-73
2021/10/23 02:20:40;;;;;;;4.77;1.80;;;;;;;;;;5016103;28;20228;-73
2021/10/23 02:23:44;;;;;;;5.40;2.00;;;;;;;;;;5016098;28;20182;-73
2021/10/23 02:26:49;;;;;;;6.30;2.03;;;;;;;;;;5016385;28;20189;-73
2021/10/23 02:29:53;;;;;;;5.43;2.00;;;;;;;;;;4992744;28;20205;-73
2021/10/23 02:32:57;;;;;;;4.43;1.67;;;;;;;;;;5015722;28;20205;-73
2021/10/23 02:36:01;;;;;;;4.50;1.67;;;;;;;;;;5015180;28;20189;-73
2021/10/23 02:39:05;;;;;;;5.57;1.70;;;;;;;;;;5004011;28;20181;-73
2021/10/23 02:42:09;;;;;;;6.97;2.07;;;;;;;;;;5014805;28;20229;-73
2021/10/23 02:45:13;;;;;;;4.97;2.10;;;;;;;;;;5015561;28;20181;-73
2021/10/23 02:48:18;;;;;;;4.37;1.60;;;;;;;;;;5015582;28;20190;-73
2021/10/23 02:51:22;;;;;;;4.57;1.53;;;;;;;;;;5015715;28;20700;-73
2021/10/23 02:54:26;;;;;;;7.33;1.80;;;;;;;;;;5003531;28;20221;-73
2021/10/23 02:57:30;;;;;;;4.37;1.80;;;;;;;;;;5015890;28;20193;-73
2021/10/23 03:00:34;;;;;;;6.23;1.70;;;;;;;;;;5015475;28;20181;-73
2021/10/23 03:03:38;;;;;;;4.13;2.27;;;;;;;;;;5015556;28;20193;-73
2021/10/23 03:06:44;;;;;;;4.80;2.10;;;;;;;;;;5003115;28;20206;-73
2021/10/23 03:09:48;;;;;;;3.50;1.90;;;;;;;;;;5015146;28;20186;-73
2021/10/23 03:12:52;;;;;;;7.97;1.97;;;;;;;;;;5014996;28;20181;-73
2021/10/23 03:15:56;;;;;;;5.93;1.47;;;;;;;;;;5014985;28;20189;-73
2021/10/23 03:19:00;;;;;;;4.50;1.57;;;;;;;;;;5014840;28;20182;-73
2021/10/23 03:22:05;;;;;;;3.67;1.63;;;;;;;;;;5052163;23;20247;-78
2021/10/23 03:25:09;;;;;;;5.37;1.80;;;;;;;;;;5023114;28;20623;-77
2021/10/23 03:28:13;;;;;;;4.37;1.80;;;;;;;;;;5034527;28;20184;-78
2021/10/23 03:31:17;;;;;;;4.53;1.90;;;;;;;;;;5023129;28;20220;-78
2021/10/23 03:34:22;;;;;;;2.80;1.77;;;;;;;;;;5058010;28;20670;-77
2021/10/23 03:37:30;;;;;;;8.27;1.90;;;;;;;;;;5034896;28;20188;-79
2021/10/23 03:40:34;;;;;;;10.57;1.83;;;;;;;;;;5034662;28;20181;-78
2021/10/23 03:43:38;;;;;;;12.73;2.10;;;;;;;;;;5034332;28;20180;-79
2021/10/23 03:46:42;;;;;;;6.50;2.27;;;;;;;;;;5034361;28;20184;-79
2021/10/23 03:49:47;;;;;;;5.20;1.70;;;;;;;;;;5022965;28;20185;-79
2021/10/23 03:52:52;;;;;;;6.83;1.97;;;;;;;;;;5034067;28;20207;-79
2021/10/23 03:55:56;;;;;;;3.90;1.90;;;;;;;;;;5056984;28;20200;-78
2021/10/23 03:59:00;;;;;;;4.50;1.53;;;;;;;;;;5035005;28;20185;-78
2021/10/23 04:02:04;;;;;;;4.77;1.80;;;;;;;;;;5033868;28;20219;-78
2021/10/23 04:05:08;;;;;;;5.00;2.00;;;;;;;;;;5033979;28;20191;-78
2021/10/23 04:08:12;;;;;;;5.23;1.70;;;;;;;;;;5046118;28;20188;-78
2021/10/23 04:11:16;;;;;;;3.83;1.80;;;;;;;;;;5033855;28;20215;-77
2021/10/23 04:14:20;;;;;;;5.80;1.70;;;;;;;;;;5045239;28;20207;-77
2021/10/23 04:17:26;;;;;;;4.23;1.43;;;;;;;;;;5033526;28;20181;-78
2021/10/23 04:20:30;;;;;;;6.53;2.20;;;;;;;;;;5045201;28;20181;-78
2021/10/23 04:23:35;;;;;;;4.20;1.50;;;;;;;;;;5023389;28;20180;-77
2021/10/23 04:26:40;;;;;;;7.47;1.97;;;;;;;;;;5022540;28;20188;-77
2021/10/23 04:29:44;;;;;;;7.73;2.13;;;;;;;;;;5034191;28;20631;-76
2021/10/23 04:32:48;;;;;;;4.50;1.90;;;;;;;;;;5056810;28;20666;-76
2021/10/23 04:35:53;;;;;;;5.80;1.90;;;;;;;;;;5045064;28;20181;-77
2021/10/23 04:38:57;;;;;;;6.87;2.10;;;;;;;;;;5044272;28;20643;-77
2021/10/23 04:42:01;;;;;;;5.50;2.00;;;;;;;;;;5033796;28;20245;-77
2021/10/23 04:45:06;;;;;;;5.57;1.83;;;;;;;;;;5034273;28;20544;-78
2021/10/23 04:48:10;;;;;;;6.50;1.87;;;;;;;;;;5055518;28;20204;-77
2021/10/23 04:51:15;;;;;;;7.80;1.97;;;;;;;;;;5033234;28;20211;-77
2021/10/23 04:54:19;;;;;;;5.53;1.97;;;;;;;;;;5033143;28;20212;-76
2021/10/23 04:57:24;;;;;;;7.63;2.30;;;;;;;;;;5021675;28;20188;-77
2021/10/23 05:00:28;;;;;;;4.90;1.83;;;;;;;;;;5033031;28;20188;-79
2021/10/23 05:03:32;;;;;;;6.27;1.87;;;;;;;;;;5057041;28;20200;-76
2021/10/23 05:06:36;;;;;;;6.67;1.80;;;;;;;;;;5032271;28;20540;-78
2021/10/23 05:09:41;;;;;;;7.67;1.77;;;;;;;;;;5044207;28;20180;-77
2021/10/23 05:12:45;;;;;;;6.57;1.80;;;;;;;;;;5032208;28;20184;-77
2021/10/23 05:15:49;;;;;;;3.30;1.80;;;;;;;;;;5031929;28;20622;-77
2021/10/23 05:18:53;;;;;;;7.37;1.70;;;;;;;;;;5031633;28;20184;-77
2021/10/23 05:21:57;;;;;;;8.83;1.90;;;;;;;;;;5055298;28;20236;-78
2021/10/23 05:25:03;;;;;;;5.47;1.97;;;;;;;;;;5020584;28;20176;-77
2021/10/23 05:28:08;;;;;;;4.70;2.30;;;;;;;;;;5031585;28;20188;-76
2021/10/23 05:31:12;;;;;;;3.80;1.60;;;;;;;;;;5043631;28;20215;-78
2021/10/23 05:34:16;;;;;;;5.10;1.50;;;;;;;;;;5031602;28;20216;-77
2021/10/23 05:37:21;;;;;;;3.77;1.80;;;;;;;;;;5042984;28;20521;-78
2021/10/23 05:40:25;;;;;;;5.43;2.17;;;;;;;;;;5035883;28;20619;-77
2021/10/23 05:43:29;;;;;;;4.03;2.10;;;;;;;;;;5024782;28;20188;-79
2021/10/23 05:46:33;;;;;;;6.37;2.27;;;;;;;;;;5046518;28;20639;-77
2021/10/23 05:49:37;;;;;;;3.93;2.03;;;;;;;;;;5036181;28;20204;-77
2021/10/23 05:52:41;;;;;;;6.10;2.70;;;;;;;;;;5059082;28;20220;-78
2021/10/23 05:55:45;;;;;;;4.40;2.37;;;;;;;;;;5035818;28;20227;-78
2021/10/23 05:58:51;;;;;;;7.23;2.10;;;;;;;;;;5034970;28;20520;-79
2021/10/23 06:02:00;;;;;;;7.33;2.10;;;;;;;;;;5024308;28;20223;-76
2021/10/23 06:05:05;;;;;;;5.70;2.13;;;;;;;;;;5046433;28;20631;-77
2021/10/23 06:08:09;;;;;;;6.13;2.03;;;;;;;;;;5046967;28;20180;-78
2021/10/23 06:11:13;;;;;;;6.27;3.50;;;;;;;;;;5046648;28;20211;-77
2021/10/23 06:14:17;;;;;;;5.60;2.63;;;;;;;;;;5035099;28;20203;-78
2021/10/23 06:17:21;;;;;;;4.90;2.70;;;;;;;;;;5024391;28;20184;-76
2021/10/23 06:20:25;;;;;;;5.17;2.70;;;;;;;;;;5046519;28;20200;-77
2021/10/23 06:23:32;;;;;;;10.67;4.53;;;;;;;;;;5034881;28;20199;-77
2021/10/23 06:26:36;;;;;;;6.87;3.17;;;;;;;;;;5046188;28;20176;-76
2021/10/23 06:29:40;;;;;;;5.93;2.20;;;;;;;;;;5057612;28;20203;-77
2021/10/23 06:32:49;;;;;;;49.00;21.20;;;;;;;;;;5046131;28;20192;-77
2021/10/23 06:35:53;;;;;;;9.70;4.20;;;;;;;;;;5046315;28;20208;-76
2021/10/23 06:38:57;;;;;;;7.43;3.90;;;;;;;;;;5045646;28;20185;-79
2021/10/23 06:42:02;;;;;;;7.03;2.67;;;;;;;;;;5058248;28;20216;-78
2021/10/23 06:45:09;;;;;;;9.20;4.93;;;;;;;;;;5034009;28;20508;-77
2021/10/23 06:48:13;;;;;;;10.67;3.60;;;;;;;;;;5034294;28;20180;-78
2021/10/23 06:51:18;;;;;;;6.63;3.10;;;;;;;;;;5033271;28;20690;-77
2021/10/23 06:54:22;;;;;;;6.73;2.67;;;;;;;;;;5033995;28;20678;-76
2021/10/23 06:57:26;;;;;;;8.13;2.60;;;;;;;;;;5045924;28;20524;-78
2021/10/23 07:00:30;;;;;;;5.23;2.13;;;;;;;;;;5045232;28;20527;-79
2021/10/23 07:03:34;;;;;;;5.80;2.50;;;;;;;;;;5033979;28;20200;-76
2021/10/23 07:06:38;;;;;;;7.03;2.80;;;;;;;;;;5044219;28;20658;-77
2021/10/23 07:09:42;;;;;;;5.93;2.60;;;;;;;;;;5033253;28;20184;-76
2021/10/23 07:12:47;;;;;;;6.27;2.87;;;;;;;;;;5023804;28;20180;-76
2021/10/23 07:15:51;;;;;;;5.47;2.50;;;;;;;;;;5023464;28;20212;-77
2021/10/23 07:18:56;;;;;;;5.70;2.63;;;;;;;;;;5033816;28;20180;-78
2021/10/23 07:22:00;;;;;;;4.03;2.57;;;;;;;;;;5033681;28;20697;-78
2021/10/23 07:25:05;;;;;;;7.37;3.10;;;;;;;;;;5022036;28;20184;-77
2021/10/23 07:28:10;;;;;;;8.23;2.23;;;;;;;;;;5057326;28;20180;-77
2021/10/23 07:31:14;;;;;;;7.87;2.40;;;;;;;;;;5033646;28;20215;-77
2021/10/23 07:34:17;;;;;;;5.43;2.13;;;;;;;;;;5023099;28;20180;-76
2021/10/23 07:37:22;;;;;;;4.67;2.00;;;;;;;;;;5033637;28;20635;-76
2021/10/23 07:40:26;;;;;;;7.50;2.93;;;;;;;;;;5033578;28;20184;-77
2021/10/23 07:43:30;;;;;;;5.80;2.70;;;;;;;;;;5024112;28;20184;-78
2021/10/23 07:46:34;;;;;;;3.53;2.00;;;;;;;;;;5034292;28;20187;-78
2021/10/23 07:49:39;;;;;;;8.53;2.63;;;;;;;;;;5035901;28;20188;-78
2021/10/23 07:52:46;;;;;;;5.07;2.57;;;;;;;;;;5046914;28;20208;-78
2021/10/23 07:55:50;;;;;;;4.80;2.10;;;;;;;;;;5024335;28;20208;-77
2021/10/23 07:58:54;;;;;;;5.57;2.90;;;;;;;;;;5033621;28;20180;-76
2021/10/23 08:02:08;;;;;;;6.10;2.40;;;;;;;;;;5043699;28;20698;-77
2021/10/23 08:05:12;;;;;;;5.70;2.53;;;;;;;;;;5022873;28;20192;-77
2021/10/23 08:08:16;;;;;;;9.47;2.33;;;;;;;;;;5044443;28;20635;-77
2021/10/23 08:11:20;;;;;;;7.20;2.90;;;;;;;;;;5044951;28;20211;-76
2021/10/23 08:14:25;;;;;;;11.43;2.77;;;;;;;;;;5045114;28;20184;-77
2021/10/23 08:17:29;;;;;;;5.30;2.40;;;;;;;;;;5044502;28;20184;-77
2021/10/23 08:20:35;;;;;;;4.73;2.30;;;;;;;;;;5044850;28;20184;-77
2021/10/23 08:23:39;;;;;;;6.03;3.07;;;;;;;;;;5021568;28;20200;-76
2021/10/23 08:26:44;;;;;;;7.20;2.80;;;;;;;;;;5033134;28;20200;-76
2021/10/23 08:29:47;;;;;;;11.10;2.80;;;;;;;;;;5033037;28;20187;-78
2021/10/23 08:32:52;;;;;;;4.83;2.47;;;;;;;;;;5032567;28;20188;-77
2021/10/23 08:35:56;;;;;;;8.63;3.10;;;;;;;;;;5021597;28;20540;-78
2021/10/23 08:39:00;;;;;;;4.60;3.30;;;;;;;;;;5032229;28;20184;-78
2021/10/23 08:42:05;;;;;;;4.93;2.77;;;;;;;;;;5044322;28;20219;-77
2021/10/23 08:45:11;;;;;;;5.73;2.43;;;;;;;;;;5033122;28;20200;-77
2021/10/23 08:48:16;;;;;;;8.33;2.90;;;;;;;;;;5032923;28;20192;-77
2021/10/23 08:51:25;;;;;;;6.17;3.03;;;;;;;;;;5043800;28;20215;-78
2021/10/23 08:54:32;;;;;;;7.30;2.77;;;;;;;;;;5031775;28;20180;-77
2021/10/23 08:57:36;;;;;;;7.47;3.00;;;;;;;;;;5055864;28;20539;-77
2021/10/23 09:00:40;;;;;;;5.57;3.00;;;;;;;;;;5032680;28;20219;-77
2021/10/23 09:03:48;;;;;;;6.83;4.37;;;;;;;;;;5020901;28;20750;-77
2021/10/23 09:06:52;;;;;;;9.73;3.60;;;;;;;;;;5043797;28;20176;-77
2021/10/23 09:09:59;;;;;;;7.97;4.30;;;;;;;;;;5055661;28;20543;-76
2021/10/23 09:13:06;;;;;;;7.03;4.70;;;;;;;;;;5043476;28;20180;-76
2021/10/23 09:16:18;;;;;;;6.93;3.47;;;;;;;;;;5015612;28;20208;-77
2021/10/23 09:19:31;;;;;;;5.63;4.77;;;;;;;;;;5044984;28;20196;-78
2021/10/23 09:22:38;;;;;;;7.63;4.33;;;;;;;;;;5017348;23;20580;-73
2021/10/23 09:25:42;;;;;;;10.83;4.37;;;;;;;;;;5017170;28;20533;-74
2021/10/23 09:28:46;;;;;;;15.67;8.87;;;;;;;;;;5016114;28;20212;-73
2021/10/23 09:31:53;;;;;;;7.67;3.77;;;;;;;;;;5016100;28;20227;-73
2021/10/23 09:35:15;;;;;;;15.03;8.90;;;;;;;;;;5016891;28;20213;-73
2021/10/23 09:38:21;;;;;;;13.17;5.80;;;;;;;;;;4997600;28;20213;-73
2021/10/23 09:41:26;;;;;;;7.53;3.10;;;;;;;;;;5014232;28;20729;-73
2021/10/23 09:44:30;;;;;;;6.27;2.97;;;;;;;;;;4971423;28;20194;-74
2021/10/23 09:47:39;;;;;;;3.70;2.70;;;;;;;;;;4985303;28;20641;-75
2021/10/23 09:50:43;;;;;;;7.07;2.67;;;;;;;;;;5006663;28;20229;-74
2021/10/23 09:53:49;;;;;;;7.37;3.03;;;;;;;;;;4996942;28;20187;-74
2021/10/23 09:56:53;;;;;;;4.60;2.80;;;;;;;;;;4985044;28;20217;-74
2021/10/23 10:00:05;;;;;;;5.03;2.60;;;;;;;;;;4997128;28;20190;-75
2021/10/23 10:03:20;;;;;;;4.90;2.73;;;;;;;;;;5001568;28;20202;-74
2021/10/23 10:06:26;;;;;;;5.63;2.43;;;;;;;;;;4995587;28;20189;-74
2021/10/23 10:09:30;;;;;;;6.57;3.10;;;;;;;;;;5015790;28;20181;-73
2021/10/23 10:12:34;;;;;;;4.63;2.97;;;;;;;;;;5003486;28;20221;-73
2021/10/23 10:15:42;;;;;;;6.50;2.60;;;;;;;;;;5003993;28;20691;-73
2021/10/23 10:18:47;;;;;;;4.60;2.83;;;;;;;;;;4985017;28;20190;-75
2021/10/23 10:21:53;;;;;;;8.37;3.10;;;;;;;;;;4995492;28;20565;-75
2021/10/23 10:25:21;;;;;;;5.87;2.60;;;;;;;;;;5011944;28;20201;-74
2021/10/23 10:28:25;;;;;;;6.30;3.00;;;;;;;;;;4996486;28;20189;-74
2021/10/23 10:35:43;;;;;;;5.63;2.53;;;;;;;;;;4998981;28;20221;-74
2021/10/23 10:45:47;;;;;;;6.23;2.67;;;;;;;;;;4992448;28;20175;-74
2021/10/23 10:48:51;;;;;;;6.20;3.20;;;;;;;;;;5011800;28;20193;-73
2021/10/23 10:51:55;;;;;;;4.73;2.80;;;;;;;;;;5005908;28;20727;-73
2021/10/23 10:55:20;;;;;;;4.80;2.50;;;;;;;;;;4992404;28;20202;-73
2021/10/23 10:58:47;;;;;;;7.00;2.70;;;;;;;;;;5008538;28;20201;-73
2021/10/23 11:02:06;;;;;;;6.07;2.63;;;;;;;;;;4978814;28;20225;-73
2021/10/23 11:05:15;;;;;;;3.83;2.17;;;;;;;;;;4980273;28;20183;-74
2021/10/23 11:08:20;;;;;;;5.63;2.50;;;;;;;;;;4994959;28;20201;-73
2021/10/23 11:11:24;;;;;;;7.07;2.47;;;;;;;;;;5010187;28;20221;-73
2021/10/23 11:14:28;;;;;;;4.43;2.13;;;;;;;;;;5010864;28;20190;-74
2021/10/23 11:17:38;;;;;;;5.03;2.40;;;;;;;;;;4990804;28;20217;-73
2021/10/23 11:20:46;;;;;;;5.10;2.07;;;;;;;;;;4991678;28;20562;-74
2021/10/23 11:23:52;;;;;;;3.63;2.40;;;;;;;;;;4979854;28;20182;-74
2021/10/23 11:26:56;;;;;;;4.80;2.60;;;;;;;;;;4983126;28;20181;-74
2021/10/23 11:30:13;;;;;;;2.80;2.10;;;;;;;;;;4999371;28;20185;-74
2021/10/23 11:33:20;;;;;;;3.33;2.00;;;;;;;;;;5010126;28;20181;-74
2021/10/23 11:36:24;;;;;;;3.17;2.37;;;;;;;;;;5011053;28;20222;-74
2021/10/23 11:39:31;;;;;;;5.50;2.53;;;;;;;;;;5011226;28;20185;-74
2021/10/23 11:42:46;;;;;;;3.83;2.40;;;;;;;;;;5000254;28;20234;-74
2021/10/23 11:45:51;;;;;;;3.83;2.43;;;;;;;;;;5009738;28;20189;-74
2021/10/23 11:49:01;;;;;;;4.47;2.00;;;;;;;;;;4998700;28;20197;-74
2021/10/23 11:52:07;;;;;;;5.60;2.07;;;;;;;;;;4994350;28;20237;-74
2021/10/23 11:55:25;;;;;;;4.97;2.37;;;;;;;;;;5010858;28;20238;-74
2021/10/23 11:58:32;;;;;;;3.87;2.40;;;;;;;;;;4996708;28;20668;-74
2021/10/23 12:01:36;;;;;;;5.80;2.50;;;;;;;;;;5010021;28;20221;-74
2021/10/23 12:04:40;;;;;;;5.73;2.40;;;;;;;;;;5010760;28;20193;-74
2021/10/23 12:07:44;;;;;;;5.93;2.03;;;;;;;;;;5000764;28;20197;-74
2021/10/23 12:11:22;;;;;;;2.17;1.77;;;;;;;;;;4983851;28;20224;-74
2021/10/23 12:14:27;;;;;;;3.83;1.90;;;;;;;;;;4993969;28;20190;-74
2021/10/23 12:17:31;;;;;;;3.73;2.00;;;;;;;;;;4990778;28;20217;-73
2021/10/23 12:20:35;;;;;;;11.23;2.10;;;;;;;;;;4989397;28;20205;-73
2021/10/23 12:24:00;;;;;;;4.47;1.90;;;;;;;;;;5000703;28;20209;-73
2021/10/23 12:27:20;;;;;;;3.57;1.70;;;;;;;;;;4990741;28;20186;-74
2021/10/23 12:30:24;;;;;;;4.63;2.23;;;;;;;;;;4990281;28;20178;-73
2021/10/23 12:33:28;;;;;;;1.97;1.53;;;;;;;;;;4989261;28;20186;-73
2021/10/23 12:36:33;;;;;;;3.43;2.13;;;;;;;;;;4990694;28;20214;-73
2021/10/23 12:39:37;;;;;;;3.60;1.90;;;;;;;;;;4978718;28;20182;-73
2021/10/23 12:42:50;;;;;;;5.10;1.40;;;;;;;;;;4989461;28;20230;-74
2021/10/23 12:45:54;;;;;;;2.43;1.70;;;;;;;;;;4990076;28;20182;-73
2021/10/23 12:48:58;;;;;;;4.37;2.00;;;;;;;;;;4978880;28;20198;-73
2021/10/23 12:52:02;;;;;;;3.67;1.60;;;;;;;;;;5008825;28;20213;-73
2021/10/23 12:55:08;;;;;;;4.53;1.70;;;;;;;;;;4996880;28;20189;-72
2021/10/23 12:58:12;;;;;;;2.93;2.00;;;;;;;;;;4978841;28;20227;-73
2021/10/23 13:01:17;;;;;;;6.47;2.00;;;;;;;;;;5009778;28;20221;-73
2021/10/23 13:04:21;;;;;;;4.00;2.07;;;;;;;;;;4997876;28;20549;-73
2021/10/23 13:07:25;;;;;;;3.43;2.30;;;;;;;;;;4978512;28;20575;-73
2021/10/23 13:10:29;;;;;;;4.90;2.20;;;;;;;;;;4991683;28;20562;-73
2021/10/23 13:13:35;;;;;;;5.67;2.23;;;;;;;;;;4993230;28;20608;-72
2021/10/23 13:16:39;;;;;;;6.97;2.83;;;;;;;;;;5002941;28;20213;-73
2021/10/23 13:19:44;;;;;;;5.63;2.03;;;;;;;;;;4990446;28;20205;-74
2021/10/23 13:22:48;;;;;;;10.77;2.43;;;;;;;;;;4991326;28;20209;-74
2021/10/23 13:25:52;;;;;;;11.00;2.67;;;;;;;;;;4978237;28;20201;-73
2021/10/23 13:28:56;;;;;;;5.93;2.63;;;;;;;;;;4993849;28;20221;-73
2021/10/23 13:32:00;;;;;;;3.93;2.40;;;;;;;;;;4977857;28;20230;-73
2021/10/23 13:35:04;;;;;;;7.70;2.33;;;;;;;;;;4989730;28;20194;-73
2021/10/23 13:38:09;;;;;;;4.47;2.37;;;;;;;;;;4977493;28;20225;-73
2021/10/23 13:41:13;;;;;;;7.47;2.90;;;;;;;;;;4977889;28;20222;-73
2021/10/23 13:44:17;;;;;;;8.70;2.20;;;;;;;;;;5006312;28;20194;-73
2021/10/23 13:47:21;;;;;;;8.10;1.90;;;;;;;;;;5007951;28;20186;-73
2021/10/23 13:50:26;;;;;;;4.37;1.87;;;;;;;;;;5009589;28;20293;-73
2021/10/23 13:53:30;;;;;;;6.97;2.20;;;;;;;;;;4994398;28;20198;-73
2021/10/23 13:56:34;;;;;;;5.87;3.23;;;;;;;;;;4993189;28;20766;-73
2021/10/23 13:59:38;;;;;;;4.03;1.80;;;;;;;;;;5009336;28;20205;-73
2021/10/23 14:02:43;;;;;;;8.77;1.90;;;;;;;;;;5004332;28;20249;-73
2021/10/23 14:05:47;;;;;;;6.40;2.63;;;;;;;;;;4992533;28;20212;-73
2021/10/23 14:08:52;;;;;;;2.27;1.63;;;;;;;;;;4993058;28;20519;-73
2021/10/23 14:11:56;;;;;;;6.07;1.90;;;;;;;;;;4981276;28;20230;-73
2021/10/23 14:15:00;;;;;;;5.47;1.57;;;;;;;;;;4993167;28;20186;-73
2021/10/23 14:18:08;;;;;;;2.30;1.50;;;;;;;;;;4996915;28;20217;-73
2021/10/23 14:21:14;;;;;;;5.47;1.77;;;;;;;;;;4999888;28;20696;-73
2021/10/23 14:24:19;;;;;;;5.60;2.20;;;;;;;;;;5011622;28;20181;-73
2021/10/23 14:28:10;;;;;;;5.13;1.90;;;;;;;;;;4982272;28;20194;-73
2021/10/23 14:30:50;;;;;;;4.63;2.07;;;;;;;;;;4974596;28;20233;-73
2021/10/23 14:33:55;;;;;;;5.23;1.70;;;;;;;;;;4980188;28;20182;-73
2021/10/23 14:37:00;;;;;;;3.70;1.73;;;;;;;;;;4992658;28;20222;-73
2021/10/23 14:40:07;;;;;;;5.50;1.63;;;;;;;;;;4992642;28;20194;-73
2021/10/23 14:43:11;;;;;;;6.13;1.77;;;;;;;;;;4980386;28;20194;-73
2021/10/23 14:46:15;;;;;;;5.73;2.20;;;;;;;;;;4992753;28;20201;-73
2021/10/23 14:49:19;;;;;;;4.30;1.60;;;;;;;;;;5011750;28;20181;-73
2021/10/23 14:52:24;;;;;;;9.07;2.10;;;;;;;;;;4999052;28;20225;-73
2021/10/23 14:55:28;;;;;;;2.83;1.60;;;;;;;;;;5012030;28;20201;-73
2021/10/23 14:58:33;;;;;;;4.83;1.57;;;;;;;;;;5010320;28;20217;-73
2021/10/23 15:01:38;;;;;;;6.57;1.73;;;;;;;;;;5001337;28;20217;-73
2021/10/23 15:04:42;;;;;;;5.90;1.40;;;;;;;;;;5010603;28;20206;-73
2021/10/23 15:07:47;;;;;;;2.87;1.20;;;;;;;;;;5002705;28;20981;-73
2021/10/23 15:10:51;;;;;;;2.53;1.33;;;;;;;;;;4993393;28;20225;-73
2021/10/23 15:13:55;;;;;;;2.50;1.40;;;;;;;;;;5011386;28;20181;-73
2021/10/23 15:16:59;;;;;;;4.93;1.60;;;;;;;;;;4992132;28;20222;-73
2021/10/23 15:20:04;;;;;;;8.40;2.40;;;;;;;;;;5006462;28;20189;-73
2021/10/23 15:23:09;;;;;;;6.23;2.00;;;;;;;;;;5011283;28;20217;-73
2021/10/23 15:26:13;;;;;;;3.97;1.90;;;;;;;;;;5010449;28;20579;-73
2021/10/23 15:29:21;;;;;;;2.97;2.03;;;;;;;;;;4980304;28;20190;-73
2021/10/23 15:32:25;;;;;;;6.83;2.60;;;;;;;;;;4990542;28;20226;-73
2021/10/23 15:35:35;;;;;;;5.33;2.10;;;;;;;;;;4990504;28;20206;-73
2021/10/23 15:38:47;;;;;;;3.67;2.33;;;;;;;;;;5004708;28;20214;-73
2021/10/23 15:41:53;;;;;;;5.03;1.90;;;;;;;;;;4998650;28;20225;-72
2021/10/23 15:44:57;;;;;;;3.70;1.63;;;;;;;;;;4978945;28;20186;-73
2021/10/23 15:48:03;;;;;;;5.33;1.33;;;;;;;;;;4998715;28;20189;-73
2021/10/23 15:51:07;;;;;;;5.07;2.20;;;;;;;;;;5009433;28;20216;-72
2021/10/23 15:54:12;;;;;;;10.13;3.60;;;;;;;;;;4979045;28;20186;-73
2021/10/23 15:57:16;;;;;;;7.80;4.03;;;;;;;;;;4992590;28;20622;-73
2021/10/23 16:00:20;;;;;;;7.77;4.23;;;;;;;;;;5010481;28;20186;-73
2021/10/23 16:03:24;;;;;;;8.97;3.40;;;;;;;;;;4995851;28;20189;-73
2021/10/23 16:06:28;;;;;;;4.40;2.73;;;;;;;;;;4977304;28;20190;-73
2021/10/23 16:09:33;;;;;;;5.73;2.30;;;;;;;;;;4979878;28;20201;-73
2021/10/23 16:12:38;;;;;;;5.23;2.20;;;;;;;;;;4995617;28;20711;-73
2021/10/23 16:15:42;;;;;;;2.77;1.70;;;;;;;;;;5008477;28;20185;-73
2021/10/23 16:18:47;;;;;;;6.30;1.70;;;;;;;;;;5004273;28;20221;-73
2021/10/23 16:21:51;;;;;;;3.63;1.60;;;;;;;;;;4990376;28;20229;-73
2021/10/23 16:24:55;;;;;;;3.27;1.97;;;;;;;;;;4995003;28;20205;-73
2021/10/23 16:27:59;;;;;;;4.97;2.30;;;;;;;;;;4996514;28;20549;-73
2021/10/23 16:31:04;;;;;;;6.30;2.47;;;;;;;;;;5010011;28;20221;-73
2021/10/23 16:34:08;;;;;;;3.40;1.70;;;;;;;;;;5009647;28;20205;-73
2021/10/23 16:37:12;;;;;;;8.00;2.20;;;;;;;;;;4998929;28;20581;-73
2021/10/23 16:40:19;;;;;;;3.87;1.67;;;;;;;;;;4978585;28;20210;-73
2021/10/23 16:43:24;;;;;;;2.93;1.40;;;;;;;;;;4990588;28;20213;-73
2021/10/23 16:46:28;;;;;;;4.57;2.03;;;;;;;;;;4991007;28;20186;-74
2021/10/23 16:49:32;;;;;;;4.07;1.90;;;;;;;;;;4990279;28;20186;-73
2021/10/23 16:52:36;;;;;;;6.10;1.50;;;;;;;;;;4978853;28;20588;-75
2021/10/23 16:55:40;;;;;;;5.83;1.80;;;;;;;;;;4990469;28;20190;-74
2021/10/23 16:58:45;;;;;;;8.73;1.60;;;;;;;;;;4989777;28;20681;-74
2021/10/23 17:01:50;;;;;;;3.23;1.60;;;;;;;;;;4979839;28;20217;-73
2021/10/23 17:04:54;;;;;;;3.87;1.60;;;;;;;;;;4991397;28;20202;-73
2021/10/23 17:07:58;;;;;;;3.97;1.47;;;;;;;;;;4999479;28;20197;-73
2021/10/23 17:11:02;;;;;;;3.77;1.70;;;;;;;;;;5008875;28;20715;-73
2021/10/23 17:14:07;;;;;;;6.20;1.97;;;;;;;;;;4991594;28;20564;-73
2021/10/23 17:17:11;;;;;;;3.50;1.80;;;;;;;;;;4989310;28;20185;-73
2021/10/23 17:20:16;;;;;;;5.90;1.90;;;;;;;;;;4978134;28;20190;-72
2021/10/23 17:23:29;;;;;;;3.97;1.83;;;;;;;;;;4978243;28;20621;-74
2021/10/23 17:26:38;;;;;;;5.17;1.80;;;;;;;;;;5000293;28;20469;-73
2021/10/23 17:29:45;;;;;;;3.93;1.70;;;;;;;;;;4986212;28;20190;-73
2021/10/23 17:32:49;;;;;;;5.20;2.20;;;;;;;;;;5009083;28;20189;-73
2021/10/23 17:35:53;;;;;;;5.73;2.40;;;;;;;;;;5011623;28;20193;-73
2021/10/23 17:38:57;;;;;;;4.53;2.50;;;;;;;;;;4984913;28;20845;-74
2021/10/23 17:42:02;;;;;;;3.90;2.03;;;;;;;;;;5012565;28;20225;-73
2021/10/23 17:45:06;;;;;;;3.73;1.80;;;;;;;;;;5011644;28;20185;-73
2021/10/23 17:48:13;;;;;;;6.40;2.10;;;;;;;;;;5002031;28;20190;-73
2021/10/23 17:51:18;;;;;;;5.03;2.53;;;;;;;;;;4993833;28;20221;-73
2021/10/23 17:54:21;;;;;;;5.03;2.30;;;;;;;;;;5004963;28;20534;-73
2021/10/23 17:57:26;;;;;;;4.37;2.20;;;;;;;;;;5012830;28;20185;-73
2021/10/23 18:00:31;;;;;;;6.50;2.47;;;;;;;;;;4981443;28;20843;-73
2021/10/23 18:03:36;;;;;;;4.47;2.27;;;;;;;;;;5006992;28;20201;-73
2021/10/23 18:06:40;;;;;;;5.53;2.20;;;;;;;;;;5000945;28;20186;-73
2021/10/23 18:09:44;;;;;;;2.90;2.37;;;;;;;;;;4984660;28;20665;-73
2021/10/23 18:12:49;;;;;;;5.07;2.00;;;;;;;;;;4993451;28;20194;-73
2021/10/23 18:15:59;;;;;;;10.10;3.60;;;;;;;;;;4994119;28;20202;-73
2021/10/23 18:19:03;;;;;;;7.77;4.50;;;;;;;;;;5009415;28;20744;-73
2021/10/23 18:22:07;;;;;;;8.43;4.07;;;;;;;;;;5003875;28;20230;-73
2021/10/23 18:25:13;;;;;;;7.20;4.13;;;;;;;;;;4999518;28;20210;-73
2021/10/23 18:28:17;;;;;;;6.27;2.47;;;;;;;;;;4995332;28;20198;-73
2021/10/23 18:31:22;;;;;;;6.00;2.40;;;;;;;;;;4991792;28;20221;-73
2021/10/23 18:34:26;;;;;;;4.63;2.73;;;;;;;;;;4992875;28;20657;-73
2021/10/23 18:37:30;;;;;;;5.47;2.43;;;;;;;;;;5011654;28;20202;-73
2021/10/23 18:40:36;;;;;;;4.87;2.67;;;;;;;;;;5008833;28;20201;-73
2021/10/23 18:43:40;;;;;;;4.87;2.10;;;;;;;;;;4993009;28;20205;-73